createdAt,value
2022-12-24T00:03:44.805Z,9.35
2022-12-24T00:08:47.652Z,9.37
2022-12-24T00:13:50.919Z,9.35
2022-12-24T00:18:55.240Z,9.44
2022-12-24T00:23:58.093Z,9.49
2022-12-24T00:29:01.338Z,9.48
2022-12-24T00:34:06.137Z,9.55
2022-12-24T00:39:09.196Z,9.50
2022-12-24T00:44:12.610Z,9.42
2022-12-24T00:49:16.861Z,9.45
2022-12-24T00:54:19.713Z,9.49
2022-12-24T00:59:22.592Z,9.48
2022-12-24T01:04:44.035Z,9.43
2022-12-24T01:09:46.935Z,9.25
2022-12-24T01:14:49.778Z,9.19
2022-12-24T01:19:54.079Z,9.28
2022-12-24T01:24:56.912Z,9.39
2022-12-24T01:29:59.844Z,9.45
2022-12-24T01:35:04.305Z,9.50
2022-12-24T01:40:26.162Z,9.50
2022-12-24T01:45:44.273Z,9.54
2022-12-24T01:50:49.671Z,9.58
2022-12-24T01:55:53.277Z,9.53
2022-12-24T02:00:56.250Z,9.42
2022-12-24T02:06:01.411Z,9.35
2022-12-24T02:11:04.330Z,9.27
2022-12-24T02:16:13.191Z,9.13
2022-12-24T02:21:43.371Z,9.05
2022-12-24T02:27:02.240Z,8.99
2022-12-24T02:32:11.758Z,8.89
2022-12-24T02:37:18.011Z,8.85
2022-12-24T02:42:24.253Z,8.87
2022-12-24T02:47:31.001Z,8.77
2022-12-24T02:52:37.834Z,8.63
2022-12-24T02:57:51.995Z,8.57
2022-12-24T03:03:09.011Z,8.64
2022-12-24T03:08:15.713Z,8.57
2022-12-24T03:13:19.891Z,8.55
2022-12-24T03:18:26.122Z,8.58
2022-12-24T03:23:29.069Z,8.59
2022-12-24T03:28:32.233Z,8.53
2022-12-24T03:33:37.043Z,8.50
2022-12-24T03:38:39.963Z,8.50
2022-12-24T03:43:42.819Z,8.53
2022-12-24T03:48:47.007Z,8.60
2022-12-24T03:53:50.497Z,8.69
2022-12-24T03:58:53.522Z,8.83
2022-12-24T04:03:57.773Z,8.92
2022-12-24T04:09:04.926Z,8.96
2022-12-24T04:14:07.830Z,9.05
2022-12-24T04:19:12.172Z,9.13
2022-12-24T04:24:15.072Z,9.08
2022-12-24T04:29:17.875Z,9.08
2022-12-24T04:34:22.122Z,9.12
2022-12-24T04:39:26.067Z,9.19
2022-12-24T04:44:28.930Z,9.23
2022-12-24T04:49:33.125Z,9.29
2022-12-24T04:54:36.430Z,9.37
2022-12-24T04:59:39.383Z,9.43
2022-12-24T05:04:43.679Z,9.48
2022-12-24T05:09:47.023Z,9.50
2022-12-24T05:14:50.029Z,9.51
2022-12-24T05:19:54.204Z,9.48
2022-12-24T05:25:14.567Z,9.53
2022-12-24T05:30:17.493Z,9.75
2022-12-24T05:35:21.753Z,9.77
2022-12-24T05:40:24.629Z,9.81
2022-12-24T05:45:27.500Z,9.89
2022-12-24T05:50:31.653Z,9.80
2022-12-24T05:55:41.288Z,9.75
2022-12-24T06:00:44.176Z,9.76
2022-12-24T06:05:48.377Z,9.69
2022-12-24T06:10:56.173Z,9.65
2022-12-24T06:15:59.771Z,9.73
2022-12-24T06:21:04.626Z,9.76
2022-12-24T06:26:09.092Z,9.73
2022-12-24T06:31:14.467Z,9.73
2022-12-24T06:36:20.756Z,9.69
2022-12-24T06:41:24.392Z,9.75
2022-12-24T06:46:27.751Z,9.66
2022-12-24T06:51:32.152Z,9.76
2022-12-24T06:56:35.403Z,9.77
2022-12-24T07:01:38.380Z,9.74
2022-12-24T07:06:43.116Z,9.68
2022-12-24T07:11:46.137Z,9.61
2022-12-24T07:16:55.234Z,9.69
2022-12-24T07:22:02.939Z,9.61
2022-12-24T07:27:05.795Z,9.67
2022-12-24T07:32:09.033Z,9.71
2022-12-24T07:37:13.936Z,9.77
2022-12-24T07:42:16.907Z,9.73
2022-12-24T07:47:20.643Z,9.77
2022-12-24T07:52:25.326Z,9.74
2022-12-24T07:57:28.206Z,9.83
2022-12-24T08:02:31.452Z,9.90
2022-12-24T08:07:36.106Z,9.91
2022-12-24T08:12:39.370Z,9.96
2022-12-24T08:17:42.372Z,9.96
2022-12-24T08:22:46.597Z,9.93
2022-12-24T08:27:49.463Z,9.87
2022-12-24T08:32:52.510Z,9.87
2022-12-24T08:37:56.852Z,10.00
2022-12-24T08:42:59.915Z,9.95
2022-12-24T08:48:03.054Z,9.75
2022-12-24T08:53:07.408Z,9.99
2022-12-24T08:58:10.369Z,10.09
2022-12-24T09:03:16.979Z,10.08
2022-12-24T09:08:23.852Z,10.14
2022-12-24T09:13:26.795Z,10.12
2022-12-24T09:18:30.238Z,10.06
2022-12-24T09:23:36.077Z,10.10
2022-12-24T09:28:40.060Z,10.11
2022-12-24T09:33:44.597Z,10.10
2022-12-24T09:38:48.911Z,10.16
2022-12-24T09:43:56.095Z,10.08
2022-12-24T09:49:03.696Z,10.05
2022-12-24T09:54:13.897Z,10.00
2022-12-24T09:59:18.544Z,9.99
2022-12-24T10:04:23.015Z,10.18
2022-12-24T10:09:32.760Z,10.09
2022-12-24T10:14:48.034Z,10.23
2022-12-24T10:19:54.066Z,10.24
2022-12-24T10:25:03.892Z,10.12
2022-12-24T10:30:17.266Z,10.16
2022-12-24T10:35:25.147Z,10.26
2022-12-24T10:40:35.609Z,10.14
2022-12-24T10:45:41.420Z,10.26
2022-12-24T10:50:51.099Z,10.14
2022-12-24T10:56:04.933Z,10.58
2022-12-24T11:01:07.915Z,10.65
2022-12-24T11:06:12.904Z,10.63
2022-12-24T11:11:20.185Z,10.58
2022-12-24T11:16:27.324Z,10.68
2022-12-24T11:21:33.236Z,10.55
2022-12-24T11:26:39.767Z,10.58
2022-12-24T11:31:43.030Z,10.63
2022-12-24T11:36:45.913Z,10.72
2022-12-24T11:41:51.053Z,10.54
2022-12-24T11:46:56.953Z,10.51
2022-12-24T11:52:18.765Z,10.57
2022-12-24T11:57:25.155Z,10.32
2022-12-24T12:02:30.931Z,10.31
2022-12-24T12:07:37.031Z,10.04
2022-12-24T12:12:43.487Z,9.88
2022-12-24T12:17:50.307Z,9.78
2022-12-24T12:22:57.620Z,9.94
2022-12-24T12:28:03.757Z,10.22
2022-12-24T12:33:15.162Z,10.56
2022-12-24T12:38:22.273Z,10.86
2022-12-24T12:43:40.195Z,10.86
2022-12-24T12:49:06.782Z,10.50
2022-12-24T12:54:31.319Z,10.57
2022-12-24T12:59:38.903Z,10.66
2022-12-24T13:05:17.358Z,10.41
2022-12-24T13:10:51.320Z,10.21
2022-12-24T13:16:05.631Z,10.26
2022-12-24T13:21:16.988Z,10.15
2022-12-24T13:26:19.916Z,10.13
2022-12-24T13:31:30.962Z,10.11
2022-12-24T13:37:03.843Z,10.07
2022-12-24T13:42:08.109Z,10.35
2022-12-24T13:47:28.352Z,10.37
2022-12-24T13:52:40.650Z,10.19
2022-12-24T13:57:49.149Z,9.96
2022-12-24T14:02:56.687Z,9.85
2022-12-24T14:08:00.287Z,9.77
2022-12-24T14:13:03.332Z,9.74
2022-12-24T14:18:08.449Z,9.63
2022-12-24T14:23:21.566Z,9.57
2022-12-24T14:28:28.279Z,9.59
2022-12-24T14:33:33.483Z,9.55
2022-12-24T14:38:36.469Z,9.55
2022-12-24T14:43:52.526Z,9.43
2022-12-24T14:48:58.995Z,9.36
2022-12-24T14:54:15.744Z,9.23
2022-12-24T14:59:19.966Z,9.13
2022-12-24T15:04:24.208Z,9.07
2022-12-24T15:09:29.450Z,9.05
2022-12-24T15:14:37.080Z,8.79
2022-12-24T15:19:43.664Z,8.72
2022-12-24T15:24:47.961Z,8.58
2022-12-24T15:29:52.726Z,8.50
2022-12-24T15:34:57.189Z,8.35
2022-12-24T15:40:08.091Z,8.27
2022-12-24T15:45:17.152Z,8.05
2022-12-24T15:50:29.375Z,8.05
2022-12-24T15:55:34.713Z,8.02
2022-12-24T16:00:37.635Z,7.99
2022-12-24T16:05:41.868Z,8.03
2022-12-24T16:10:46.889Z,7.89
2022-12-24T16:15:53.337Z,7.75
2022-12-24T16:20:57.892Z,7.58
2022-12-24T16:26:00.717Z,7.46
2022-12-24T16:31:03.842Z,7.38
2022-12-24T16:36:08.729Z,7.36
2022-12-24T16:41:11.787Z,7.34
2022-12-24T16:46:14.934Z,7.33
2022-12-24T16:51:19.188Z,7.34
2022-12-24T16:56:22.587Z,7.21
2022-12-24T17:01:25.814Z,7.21
2022-12-24T17:06:31.587Z,7.03
2022-12-24T17:11:34.679Z,7.12
2022-12-24T17:16:38.010Z,6.91
2022-12-24T17:21:42.414Z,6.86
2022-12-24T17:26:45.289Z,6.83
2022-12-24T17:31:51.438Z,6.80
2022-12-24T17:36:55.647Z,6.70
2022-12-24T17:41:58.522Z,6.58
2022-12-24T17:47:02.000Z,6.59
2022-12-24T17:52:06.580Z,6.54
2022-12-24T17:57:09.590Z,6.67
2022-12-24T18:02:13.205Z,6.61
2022-12-24T18:07:17.474Z,6.58
2022-12-24T18:12:20.393Z,6.67
2022-12-24T18:17:23.246Z,6.69
2022-12-24T18:22:27.453Z,6.74
2022-12-24T18:27:30.313Z,6.87
2022-12-24T18:32:33.208Z,6.98
2022-12-24T18:37:37.819Z,6.91
2022-12-24T18:42:41.636Z,6.86
2022-12-24T18:47:44.510Z,7.13
2022-12-24T18:52:51.087Z,7.28
2022-12-24T18:57:54.060Z,6.86
2022-12-24T19:02:56.981Z,6.79
2022-12-24T19:08:11.024Z,6.70
2022-12-24T19:13:24.073Z,6.65
2022-12-24T19:18:26.979Z,6.66
2022-12-24T19:23:31.240Z,6.60
2022-12-24T19:28:34.840Z,6.65
2022-12-24T19:33:42.349Z,6.77
2022-12-24T19:38:48.163Z,6.67
2022-12-24T19:43:53.215Z,6.68
2022-12-24T19:48:58.367Z,6.82
2022-12-24T19:54:02.758Z,6.81
2022-12-24T19:59:06.432Z,6.80
2022-12-24T20:04:10.480Z,6.74
2022-12-24T20:09:14.684Z,6.73
2022-12-24T20:14:17.526Z,6.75
2022-12-24T20:19:20.468Z,6.85
2022-12-24T20:24:24.701Z,7.00
2022-12-24T20:29:27.577Z,7.14
2022-12-24T20:34:30.422Z,7.14
2022-12-24T20:39:34.702Z,7.10
2022-12-24T20:44:37.651Z,7.17
2022-12-24T20:49:40.600Z,7.22
2022-12-24T20:54:44.995Z,7.21
2022-12-24T20:59:47.801Z,7.21
2022-12-24T21:04:54.134Z,7.21
2022-12-24T21:10:00.814Z,7.17
2022-12-24T21:15:03.822Z,7.23
2022-12-24T21:20:07.875Z,7.13
2022-12-24T21:25:12.944Z,7.12
2022-12-24T21:30:16.031Z,7.20
2022-12-24T21:35:19.190Z,7.19
2022-12-24T21:40:23.512Z,7.19
2022-12-24T21:45:26.347Z,7.07
2022-12-24T21:50:46.877Z,7.07
2022-12-24T21:55:52.354Z,6.89
2022-12-24T22:00:55.365Z,7.00
2022-12-24T22:05:59.643Z,6.92
2022-12-24T22:11:25.039Z,6.89
2022-12-24T22:16:28.013Z,6.90
2022-12-24T22:21:30.858Z,6.84
2022-12-24T22:26:35.002Z,6.80
2022-12-24T22:31:38.548Z,6.90
2022-12-24T22:36:41.491Z,6.93
2022-12-24T22:41:46.341Z,6.88
2022-12-24T22:46:49.979Z,6.88
2022-12-24T22:51:52.854Z,6.87
2022-12-24T22:56:57.038Z,6.88
2022-12-24T23:02:00.045Z,6.88
2022-12-24T23:07:03.040Z,6.86
2022-12-24T23:12:08.103Z,6.73
2022-12-24T23:17:11.820Z,6.79
2022-12-24T23:22:14.636Z,6.91
2022-12-24T23:27:18.895Z,7.19
2022-12-24T23:32:23.375Z,7.22
2022-12-24T23:37:32.941Z,7.21
2022-12-24T23:42:39.214Z,7.38
2022-12-24T23:47:41.993Z,7.51
2022-12-24T23:52:44.781Z,7.55
2022-12-24T23:57:48.975Z,7.61
